KLFK/LFK METAR and TAF weather

Enter ICAO airport designator
Station Type Date Time Source
KLFK METAR 2019/02/18 04:53 UTC NOAA

KLFK 180453Z AUTO 01006KT 10SM CLR 06/02 A3006 RMK AO2 SLP178 T00610022


Station Type Date Time Source
KLFK Decoded METAR 2019/02/18 04:53 UTC NOAA

LUFKIN ANGELINA COUNTY AIRPORT , TX, United States (KLFK) 31-14N 94-45W 88M
Feb 17, 2019 - 11:53 PM EST / 2019.02.18 0453 UTC
Wind: from the N (010 degrees) at 7 MPH (6 KT):0
Visibility: 10 mile(s):0
Sky conditions: clear
Temperature: 43.0 F (6.1 C)
Dew Point: 36.0 F (2.2 C)
Relative Humidity: 76%
Pressure (altimeter): 30.06 in. Hg (1017 hPa)
ob: KLFK 180453Z AUTO 01006KT 10SM CLR 06/02 A3006 RMK AO2 SLP178 T00610022
cycle: 5

Station Type Date Time Source
KLFK TAF 2019/02/17 21:34 UTC NOAA

TAF
AMD KLFK 172032Z 1721/1818 34010KT P6SM OVC100
TEMPO 1721/1724 SCT120 BKN250
FM180000 01005KT P6SM BKN250
FM181200 04007KT P6SM BKN250


Example: see airport list